Time;durP1;ratioP1;P1;durP2;ratioP2;P2;SDS_P1;SDS_P2;PMS_P1;PMS_P2;Temp;Humidity;BMP_temperature;BMP_pressure;BME280_temperature;BME280_humidity;BME280_pressure;Samples;Min_cycle;Max_cycle;Signal;HPM_P1;HPM_P2
2023/08/09 00:01:12;;;;;;;0.80;0.80;;;;;;;15.76;97.33;64619.09;5036679;28;20210;-52
2023/08/09 00:03:40;;;;;;;1.70;0.73;;;;;;;15.70;97.49;64612.50;5035010;28;20267;-53
2023/08/09 00:06:06;;;;;;;2.17;0.98;;;;;;;15.65;98.15;64607.00;5019367;28;20228;-53
2023/08/09 00:08:32;;;;;;;1.75;0.80;;;;;;;15.82;96.80;64628.78;5035273;28;20206;-52
2023/08/09 00:10:59;;;;;;;2.17;1.05;;;;;;;15.91;96.90;64638.16;5017745;28;20233;-51
2023/08/09 00:13:24;;;;;;;2.70;0.80;;;;;;;15.93;96.36;64635.25;5034479;28;20228;-54
2023/08/09 00:15:51;;;;;;;2.38;0.88;;;;;;;15.78;96.90;64624.38;5035162;28;20214;-53
2023/08/09 00:18:16;;;;;;;1.02;0.70;;;;;;;15.69;98.42;64611.41;5036868;28;20285;-54
2023/08/09 00:20:42;;;;;;;1.20;0.88;;;;;;;15.70;97.53;64615.59;5034460;28;20233;-53
2023/08/09 00:23:08;;;;;;;0.70;0.70;;;;;;;15.68;98.11;64610.84;5034911;28;20222;-53
2023/08/09 00:25:38;;;;;;;1.02;0.95;;;;;;;15.75;97.57;64616.00;5035213;28;20193;-52
2023/08/09 00:28:05;;;;;;;1.25;0.90;;;;;;;15.71;97.46;64613.59;5015735;28;20214;-53
2023/08/09 00:30:30;;;;;;;0.98;0.90;;;;;;;15.83;97.19;64624.25;5035419;28;20194;-51
2023/08/09 00:32:56;;;;;;;2.55;0.65;;;;;;;15.86;97.23;64632.63;5035544;28;20263;-52
2023/08/09 00:35:22;;;;;;;0.52;0.52;;;;;;;15.67;97.42;64609.19;5034447;28;20267;-54
2023/08/09 00:37:47;;;;;;;2.50;0.88;;;;;;;15.65;98.29;64605.00;5035486;28;20260;-54
2023/08/09 00:40:15;;;;;;;0.95;0.85;;;;;;;15.61;98.48;64602.59;5035485;28;20225;-51
2023/08/09 00:42:42;;;;;;;4.03;0.98;;;;;;;15.65;98.21;64607.00;5033521;28;20206;-52
2023/08/09 00:45:10;;;;;;;0.88;0.80;;;;;;;15.65;98.49;64610.09;5036257;28;20183;-52
2023/08/09 00:47:35;;;;;;;0.82;0.82;;;;;;;15.58;98.32;64599.28;5034831;28;20214;-50
2023/08/09 00:50:04;;;;;;;1.58;0.80;;;;;;;15.45;99.07;64588.09;5037197;28;20213;-54
2023/08/09 00:52:30;;;;;;;1.42;0.98;;;;;;;15.39;99.70;64581.44;5038873;28;20217;-54
2023/08/09 00:54:59;;;;;;;0.93;0.77;;;;;;;15.33;99.78;64572.31;5036386;28;20640;-59
2023/08/09 00:57:25;;;;;;;0.82;0.82;;;;;;;15.33;100.00;64576.88;5034885;28;20217;-54
2023/08/09 00:59:50;;;;;;;0.82;0.82;;;;;;;15.25;100.00;64565.53;5033180;28;20616;-54
2023/08/09 01:02:16;;;;;;;2.38;0.82;;;;;;;15.43;100.00;64585.34;5035139;28;20759;-53
2023/08/09 01:04:41;;;;;;;1.13;1.00;;;;;;;15.43;99.86;64585.88;5016120;28;20202;-58
2023/08/09 01:07:17;;;;;;;1.10;0.70;;;;;;;15.55;99.37;64596.00;5032348;28;20286;-52
2023/08/09 01:09:52;;;;;;;2.38;0.93;;;;;;;15.52;99.99;64592.69;5034252;28;20221;-51
2023/08/09 01:12:24;;;;;;;0.80;0.80;;;;;;;15.39;100.00;64578.38;5034872;28;20205;-52
2023/08/09 01:14:57;;;;;;;1.83;1.20;;;;;;;15.22;100.00;64562.22;5034301;28;20206;-54
2023/08/09 01:17:32;;;;;;;0.80;0.73;;;;;;;15.12;100.00;64547.25;5035210;28;20217;-51
2023/08/09 01:19:59;;;;;;;1.02;0.88;;;;;;;15.21;100.00;64561.13;5017539;28;20215;-51
2023/08/09 01:22:34;;;;;;;1.92;1.02;;;;;;;15.15;100.00;64550.53;5033925;28;20305;-54
2023/08/09 01:25:06;;;;;;;1.70;1.00;;;;;;;15.17;100.00;64556.72;5034965;28;20232;-50
2023/08/09 01:27:33;;;;;;;1.92;0.98;;;;;;;15.17;100.00;64554.72;5034073;28;20217;-53
2023/08/09 01:30:00;;;;;;;1.42;0.75;;;;;;;15.08;100.00;64545.41;5035834;28;20205;-52
2023/08/09 01:32:28;;;;;;;0.77;0.70;;;;;;;15.14;100.00;64553.97;5033691;28;20297;-51
2023/08/09 01:34:54;;;;;;;4.47;1.10;;;;;;;15.16;100.00;64553.63;5034810;28;20252;-51
2023/08/09 01:37:46;;;;;;;0.80;0.80;;;;;;;15.11;100.00;64548.69;5033856;28;20615;-51
2023/08/09 01:40:15;;;;;;;0.93;0.90;;;;;;;15.22;100.00;64559.69;5017398;28;20206;-58
2023/08/09 01:42:54;;;;;;;1.42;0.77;;;;;;;15.24;100.00;64564.41;5033013;28;20222;-50
2023/08/09 01:45:22;;;;;;;1.10;0.93;;;;;;;15.31;100.00;64572.13;5017661;28;20208;-53
2023/08/09 01:47:49;;;;;;;0.80;0.80;;;;;;;15.37;100.00;64576.72;5034263;28;20281;-55
2023/08/09 01:50:24;;;;;;;2.80;1.10;;;;;;;15.25;100.00;64562.97;5016945;28;20218;-51
2023/08/09 01:52:55;;;;;;;1.23;0.80;;;;;;;15.33;100.00;64569.78;5032471;28;20274;-50
2023/08/09 01:55:28;;;;;;;4.55;1.45;;;;;;;15.37;100.00;64576.19;5033553;28;20221;-54
2023/08/09 01:57:54;;;;;;;1.55;0.68;;;;;;;15.26;100.00;64564.06;5013043;28;20215;-51
2023/08/09 02:00:22;;;;;;;3.70;1.00;;;;;;;15.20;100.00;64558.03;5030116;28;20210;-51
2023/08/09 02:02:49;;;;;;;1.27;1.00;;;;;;;15.09;100.00;64545.94;5011932;28;20213;-51
2023/08/09 02:05:15;;;;;;;2.55;1.08;;;;;;;15.08;100.00;64547.38;5029765;28;20250;-55
2023/08/09 02:07:41;;;;;;;0.98;0.95;;;;;;;15.23;100.00;64563.31;5029955;28;20739;-50
2023/08/09 02:10:10;;;;;;;3.38;1.00;;;;;;;15.27;100.00;64565.19;5029761;28;20197;-50
2023/08/09 02:12:38;;;;;;;1.17;0.85;;;;;;;15.24;100.00;64561.88;5029898;28;20692;-59
2023/08/09 02:15:05;;;;;;;0.95;0.80;;;;;;;15.04;100.00;64538.47;5011955;28;20209;-51
2023/08/09 02:17:31;;;;;;;1.27;1.05;;;;;;;14.96;100.00;64534.75;5031120;28;20209;-52
2023/08/09 02:19:58;;;;;;;1.58;1.00;;;;;;;15.30;100.00;64569.03;5033212;28;20201;-52
2023/08/09 02:22:25;;;;;;;0.85;0.80;;;;;;;15.35;100.00;64577.06;5015698;28;20655;-52
2023/08/09 02:24:52;;;;;;;1.17;1.00;;;;;;;15.20;100.00;64558.03;5033074;28;20198;-51
2023/08/09 02:27:18;;;;;;;1.33;0.70;;;;;;;15.20;100.00;64560.00;5033767;28;20213;-52
2023/08/09 02:29:44;;;;;;;2.25;0.95;;;;;;;15.20;100.00;64560.00;5032988;28;20252;-51
2023/08/09 02:32:09;;;;;;;2.45;1.13;;;;;;;15.21;100.00;64561.66;5032860;28;20573;-51
2023/08/09 02:34:36;;;;;;;1.10;1.00;;;;;;;15.52;100.00;64590.72;5032822;28;20288;-53
2023/08/09 02:37:02;;;;;;;1.05;0.98;;;;;;;15.32;100.00;64571.22;5033098;28;20207;-52
2023/08/09 02:39:27;;;;;;;1.05;0.95;;;;;;;15.30;100.00;64571.56;5033373;28;20221;-51
2023/08/09 02:41:53;;;;;;;2.08;0.98;;;;;;;15.48;100.00;64585.75;5033119;28;20699;-51
2023/08/09 02:44:19;;;;;;;0.90;0.90;;;;;;;15.41;100.00;64583.13;5032805;28;20691;-50
2023/08/09 02:46:44;;;;;;;1.45;1.30;;;;;;;15.24;100.00;64564.41;5033470;28;20292;-51
2023/08/09 02:49:10;;;;;;;2.25;1.35;;;;;;;15.35;100.00;64573.97;5015231;28;20244;-50
2023/08/09 02:51:35;;;;;;;3.95;1.90;;;;;;;15.44;98.65;64584.44;5015004;28;20214;-51
2023/08/09 02:54:05;;;;;;;3.22;1.50;;;;;;;15.35;98.93;64573.97;5032651;28;20588;-52
2023/08/09 02:56:32;;;;;;;2.10;1.88;;;;;;;15.27;98.65;64565.19;5032602;28;20224;-62
2023/08/09 02:58:59;;;;;;;3.67;2.00;;;;;;;15.02;99.07;64541.34;5035048;28;20647;-53
2023/08/09 03:01:26;;;;;;;2.72;2.03;;;;;;;14.90;100.00;64528.13;5037064;28;20221;-53
2023/08/09 03:03:53;;;;;;;2.65;2.08;;;;;;;14.85;99.84;64520.09;5036251;28;20214;-52
2023/08/09 03:06:22;;;;;;;2.05;1.90;;;;;;;14.70;100.00;64503.63;5018758;28;20258;-51
2023/08/09 03:08:53;;;;;;;2.00;1.80;;;;;;;14.64;100.00;64499.56;5036193;28;20210;-52
2023/08/09 03:11:25;;;;;;;1.75;1.65;;;;;;;14.36;100.00;64468.25;5019954;28;20218;-56
2023/08/09 03:13:52;;;;;;;2.67;1.92;;;;;;;14.19;100.00;64448.09;5037361;28;20213;-54
2023/08/09 03:16:22;;;;;;;1.80;1.70;;;;;;;14.15;100.00;64441.19;5019063;28;20301;-52
2023/08/09 03:18:48;;;;;;;2.63;1.77;;;;;;;14.32;100.00;64461.88;5037187;28;20222;-55
2023/08/09 03:21:13;;;;;;;1.67;1.58;;;;;;;14.32;100.00;64464.41;5017949;28;20225;-52
2023/08/09 03:23:39;;;;;;;2.13;1.98;;;;;;;14.30;100.00;64460.19;5037745;28;20198;-51
2023/08/09 03:26:05;;;;;;;2.00;1.90;;;;;;;14.28;100.00;64460.00;5037221;28;20704;-51
2023/08/09 03:28:33;;;;;;;5.32;1.80;;;;;;;14.53;100.00;64486.91;5018642;28;20343;-51
2023/08/09 03:31:00;;;;;;;2.10;1.90;;;;;;;14.55;100.00;64487.13;5036117;28;20211;-52
2023/08/09 03:33:26;;;;;;;4.70;2.20;;;;;;;14.36;100.00;64466.25;5018379;28;20221;-51
2023/08/09 03:35:52;;;;;;;6.47;2.45;;;;;;;14.37;100.00;64467.34;5034783;28;20209;-56
2023/08/09 03:38:17;;;;;;;5.97;3.47;;;;;;;14.38;100.00;64470.44;5016375;28;20212;-54
2023/08/09 03:40:43;;;;;;;5.00;2.97;;;;;;;14.39;100.00;64469.00;5032168;28;20221;-52
2023/08/09 03:43:08;;;;;;;4.93;2.53;;;;;;;14.28;100.00;64454.94;5032260;28;20643;-52
2023/08/09 03:45:34;;;;;;;2.50;2.30;;;;;;;14.25;100.00;64456.69;5014865;28;20289;-52
2023/08/09 03:47:59;;;;;;;2.25;1.95;;;;;;;14.14;100.00;64445.13;5033456;28;20672;-55
2023/08/09 03:50:25;;;;;;;4.47;2.55;;;;;;;14.20;100.00;64448.66;5014670;28;20620;-58
2023/08/09 03:52:51;;;;;;;3.00;2.40;;;;;;;14.10;100.00;64435.13;5033216;28;20214;-54
2023/08/09 03:55:17;;;;;;;2.43;2.07;;;;;;;14.03;100.00;64429.97;5032620;28;20260;-51
2023/08/09 03:57:43;;;;;;;2.95;2.30;;;;;;;13.94;100.00;64417.56;5014422;28;20698;-55
2023/08/09 04:00:17;;;;;;;4.55;2.15;;;;;;;13.88;100.00;64414.06;5014891;28;20644;-52
2023/08/09 04:02:45;;;;;;;3.97;2.22;;;;;;;14.07;100.00;64434.38;5031861;28;20210;-52
2023/08/09 04:05:10;;;;;;;2.42;2.22;;;;;;;14.13;100.00;64440.97;5032240;28;20197;-52
2023/08/09 04:07:37;;;;;;;2.45;1.90;;;;;;;14.34;100.00;64464.06;5014708;28;20220;-50
2023/08/09 04:10:08;;;;;;;3.47;1.93;;;;;;;14.32;100.00;64459.34;5013987;28;20210;-52
2023/08/09 04:12:37;;;;;;;2.30;2.10;;;;;;;14.14;100.00;64442.59;5015128;28;20214;-51
2023/08/09 04:15:04;;;;;;;2.10;2.00;;;;;;;14.27;100.00;64459.44;5013652;28;20239;-51
2023/08/09 04:17:33;;;;;;;2.40;2.20;;;;;;;14.44;100.00;64475.06;5031488;28;20202;-51
2023/08/09 04:20:00;;;;;;;3.30;2.10;;;;;;;14.16;99.86;64444.25;5031242;28;20251;-51
2023/08/09 04:22:26;;;;;;;2.55;2.00;;;;;;;14.11;100.00;64441.31;5031744;28;20218;-58
2023/08/09 04:24:52;;;;;;;2.80;2.20;;;;;;;14.31;100.00;64460.75;5032061;28;20208;-55
2023/08/09 04:27:18;;;;;;;2.03;1.83;;;;;;;14.45;99.78;64476.13;5031277;28;20722;-56
2023/08/09 04:29:46;;;;;;;3.05;2.33;;;;;;;14.61;99.12;64496.25;5031397;28;20272;-54
2023/08/09 04:32:12;;;;;;;2.25;1.98;;;;;;;14.65;98.54;64498.13;5031057;23;20666;-50
2023/08/09 04:34:41;;;;;;;9.30;2.10;;;;;;;14.63;97.83;64501.00;5030629;28;20202;-55
2023/08/09 04:37:07;;;;;;;2.03;1.92;;;;;;;14.36;99.98;64466.25;5030803;28;20210;-51
2023/08/09 04:39:33;;;;;;;2.42;2.03;;;;;;;14.37;99.71;64467.34;5031956;28;20188;-51
2023/08/09 04:41:59;;;;;;;3.17;1.73;;;;;;;14.28;99.03;64457.47;5031990;28;20700;-53
2023/08/09 04:44:25;;;;;;;1.70;1.60;;;;;;;14.22;100.00;64448.84;5032618;28;20648;-53
2023/08/09 04:46:51;;;;;;;2.10;2.00;;;;;;;14.36;100.00;64465.72;5029931;28;20260;-54
2023/08/09 04:49:16;;;;;;;2.58;2.22;;;;;;;14.54;100.00;64485.47;5031017;28;20598;-55
2023/08/09 04:51:43;;;;;;;2.53;2.33;;;;;;;14.51;100.00;64484.72;5030466;28;20210;-55
2023/08/09 04:54:08;;;;;;;2.58;1.83;;;;;;;14.45;100.00;64476.13;5029938;28;20591;-54
2023/08/09 04:56:34;;;;;;;1.88;1.77;;;;;;;14.75;100.00;64509.09;5031493;28;20252;-54
2023/08/09 04:58:59;;;;;;;2.20;2.00;;;;;;;14.79;98.03;64515.50;5030889;28;20305;-54
2023/08/09 05:01:25;;;;;;;2.03;1.80;;;;;;;14.81;100.00;64515.69;5030621;28;20225;-54
2023/08/09 05:03:50;;;;;;;1.85;1.70;;;;;;;15.31;97.75;64569.59;5031378;28;20242;-54
2023/08/09 05:06:15;;;;;;;2.85;1.73;;;;;;;15.44;98.12;64584.44;5031430;28;20213;-51
2023/08/09 05:08:41;;;;;;;2.28;1.45;;;;;;;15.61;95.42;64603.16;5031716;28;20645;-51
2023/08/09 05:11:07;;;;;;;2.70;2.17;;;;;;;15.65;100.00;64607.00;5031627;28;20613;-52
2023/08/09 05:13:33;;;;;;;1.80;1.70;;;;;;;15.69;96.89;64611.41;5031687;28;20539;-52
2023/08/09 05:15:59;;;;;;;4.28;2.20;;;;;;;15.83;99.25;64629.34;5030735;28;20210;-53
2023/08/09 05:18:25;;;;;;;2.53;2.00;;;;;;;16.06;94.79;64649.56;5031136;28;20192;-54
2023/08/09 05:20:50;;;;;;;4.35;2.42;;;;;;;16.36;99.94;64682.56;5031719;28;20214;-56
2023/08/09 05:23:17;;;;;;;4.72;2.47;;;;;;;16.61;98.91;64715.22;5031266;28;20198;-51
2023/08/09 05:25:43;;;;;;;19.58;9.95;;;;;;;16.89;100.00;64742.41;5031798;28;20725;-53
2023/08/09 05:28:09;;;;;;;6.90;3.83;;;;;;;16.94;96.94;64745.38;5031838;28;20286;-52
2023/08/09 05:30:34;;;;;;;2.47;2.28;;;;;;;17.12;88.79;64767.75;5031634;28;20229;-51
2023/08/09 05:33:00;;;;;;;2.42;1.92;;;;;;;16.74;89.66;64726.44;5031607;28;20214;-51
2023/08/09 05:35:29;;;;;;;1.77;1.67;;;;;;;16.49;89.56;64701.44;5032009;28;20194;-54
2023/08/09 05:37:54;;;;;;;1.98;1.83;;;;;;;16.28;93.21;64673.78;5031830;28;20234;-53
2023/08/09 05:40:21;;;;;;;3.35;2.30;;;;;;;16.39;93.17;64685.88;5032623;28;20217;-55
2023/08/09 05:42:46;;;;;;;3.08;1.67;;;;;;;16.65;89.56;64716.53;5032901;28;20212;-52
2023/08/09 05:45:13;;;;;;;2.42;1.90;;;;;;;16.79;88.04;64732.50;5031502;28;20209;-52
2023/08/09 05:47:39;;;;;;;3.60;2.13;;;;;;;16.57;88.16;64707.72;5028692;28;20221;-56
2023/08/09 05:50:05;;;;;;;3.60;2.92;;;;;;;16.75;96.47;64730.63;5029508;28;20555;-54
2023/08/09 05:52:31;;;;;;;3.95;2.53;;;;;;;16.88;91.15;64741.31;5028097;28;20240;-56
2023/08/09 05:54:58;;;;;;;4.18;2.22;;;;;;;17.16;90.20;64775.25;5030613;28;20293;-53
2023/08/09 05:57:23;;;;;;;3.80;2.55;;;;;;;17.30;90.07;64787.56;5029105;28;20603;-53
2023/08/09 05:59:49;;;;;;;4.32;2.88;;;;;;;17.58;90.10;64819.00;5030201;28;20251;-53
2023/08/09 06:02:15;;;;;;;5.25;2.53;;;;;;;18.10;87.56;64875.75;5028713;28;20214;-54
2023/08/09 06:04:43;;;;;;;4.25;2.60;;;;;;;18.35;84.31;64905.91;5030172;28;20209;-54
2023/08/09 06:07:09;;;;;;;7.40;2.78;;;;;;;18.46;84.42;64912.41;5046031;22;20229;-54
2023/08/09 06:09:35;;;;;;;4.20;2.63;;;;;;;18.73;81.28;64941.63;5032150;28;20213;-54
2023/08/09 06:12:04;;;;;;;4.55;2.45;;;;;;;18.57;81.76;64923.97;5031888;28;20288;-53
2023/08/09 06:14:30;;;;;;;4.30;2.55;;;;;;;17.73;84.84;64837.53;5032063;28;20292;-55
2023/08/09 06:16:56;;;;;;;6.65;2.85;;;;;;;17.21;88.41;64777.66;5049805;28;20244;-54
2023/08/09 06:19:22;;;;;;;8.27;3.78;;;;;;;17.29;100.00;64789.56;5050103;28;20574;-54
2023/08/09 06:21:47;;;;;;;5.57;3.08;;;;;;;17.55;96.20;64813.13;5049771;28;20217;-53
2023/08/09 06:24:13;;;;;;;4.82;2.63;;;;;;;18.00;93.91;64864.75;5049743;28;20208;-54
2023/08/09 06:26:39;;;;;;;3.85;2.65;;;;;;;18.22;93.58;64891.56;5049479;28;20771;-53
2023/08/09 06:29:05;;;;;;;4.18;3.13;;;;;;;18.15;84.46;64880.72;5049532;28;20304;-54
2023/08/09 06:31:31;;;;;;;5.60;2.90;;;;;;;17.78;92.00;64840.50;5050065;28;20260;-52
2023/08/09 06:33:57;;;;;;;4.80;2.78;;;;;;;17.58;87.25;64815.91;5049959;28;20645;-56
2023/08/09 06:36:22;;;;;;;4.20;3.15;;;;;;;17.66;90.65;64827.25;5049464;28;20218;-54
2023/08/09 06:38:48;;;;;;;8.13;3.40;;;;;;;17.76;89.17;64838.28;5031642;28;20571;-56
2023/08/09 06:41:13;;;;;;;9.13;2.75;;;;;;;17.73;88.83;64831.88;5049701;28;20212;-55
2023/08/09 06:43:40;;;;;;;2.97;2.60;;;;;;;17.67;90.16;64828.38;5032183;28;20701;-53
2023/08/09 06:46:07;;;;;;;4.90;2.97;;;;;;;18.20;91.51;64886.78;5031622;28;20220;-50
2023/08/09 06:48:34;;;;;;;6.95;2.97;;;;;;;18.22;84.72;64886.44;5049992;28;20240;-52
2023/08/09 06:51:01;;;;;;;3.40;2.50;;;;;;;18.11;87.78;64876.31;5049184;28;20643;-56
2023/08/09 06:53:27;;;;;;;4.63;3.63;;;;;;;18.02;84.54;64866.38;5031636;28;20213;-52
2023/08/09 06:55:53;;;;;;;7.68;3.00;;;;;;;17.83;86.85;64846.00;5031963;28;20683;-52
2023/08/09 06:58:19;;;;;;;3.10;2.55;;;;;;;17.61;89.59;64822.28;5049397;28;20318;-51
2023/08/09 07:00:46;;;;;;;2.95;2.08;;;;;;;18.01;91.23;64862.75;5049071;28;20190;-51
2023/08/09 07:03:13;;;;;;;3.67;2.67;;;;;;;18.39;84.54;64907.19;5049534;28;20297;-51
2023/08/09 07:05:40;;;;;;;3.33;2.17;;;;;;;18.58;84.38;64928.19;5052282;28;20193;-51
2023/08/09 07:08:06;;;;;;;3.03;2.72;;;;;;;18.63;83.34;64933.69;5051732;22;20245;-53
2023/08/09 07:10:32;;;;;;;2.40;1.77;;;;;;;18.87;85.77;64959.63;5032564;28;20206;-55
2023/08/09 07:12:57;;;;;;;11.02;4.03;;;;;;;19.49;84.10;65027.53;5032372;28;20198;-55
2023/08/09 07:15:23;;;;;;;6.68;2.30;;;;;;;19.83;77.71;65065.06;5032566;28;20285;-53
2023/08/09 07:17:49;;;;;;;13.00;3.10;;;;;;;20.11;79.16;65096.00;5032672;28;20218;-51
2023/08/09 07:20:15;;;;;;;4.00;2.28;;;;;;;20.10;75.60;65092.34;5033106;28;20202;-55
2023/08/09 07:22:42;;;;;;;5.97;2.90;;;;;;;20.16;73.11;65101.53;5033370;28;20210;-54
2023/08/09 07:25:10;;;;;;;5.63;3.28;;;;;;;20.26;74.80;65110.03;5032290;28;20635;-51
2023/08/09 07:27:45;;;;;;;14.10;4.18;;;;;;;20.55;73.24;65142.09;5032898;28;20229;-52
2023/08/09 07:30:13;;;;;;;14.50;3.72;;;;;;;20.72;70.76;65160.88;5032433;28;20210;-52
2023/08/09 07:32:40;;;;;;;7.80;2.45;;;;;;;21.09;71.90;65200.69;5032734;28;20205;-51
2023/08/09 07:35:07;;;;;;;5.18;2.60;;;;;;;21.21;70.59;65214.50;5032458;28;20202;-52
2023/08/09 07:37:35;;;;;;;9.32;3.38;;;;;;;21.17;71.59;65209.53;5032394;28;20279;-51
2023/08/09 07:40:03;;;;;;;2.00;1.80;;;;;;;21.36;65.58;65230.53;5032508;28;20182;-50
2023/08/09 07:42:29;;;;;;;5.97;2.65;;;;;;;21.33;66.35;65227.78;5030834;28;20245;-57
2023/08/09 07:44:54;;;;;;;9.38;3.05;;;;;;;21.32;68.85;65226.69;5032166;28;20206;-52
2023/08/09 07:47:20;;;;;;;23.95;7.22;;;;;;;21.49;68.91;65248.03;5032308;28;20293;-50
2023/08/09 07:49:46;;;;;;;4.22;2.33;;;;;;;21.65;66.00;65263.16;5032276;28;20210;-55
2023/08/09 07:52:12;;;;;;;3.08;2.35;;;;;;;21.78;64.66;65274.44;5032015;28;20300;-51
2023/08/09 07:54:38;;;;;;;4.53;2.08;;;;;;;21.71;66.56;65269.81;5031998;28;20413;-53
2023/08/09 07:57:04;;;;;;;5.75;2.72;;;;;;;21.84;66.18;65280.53;5031596;28;20221;-53
2023/08/09 07:59:30;;;;;;;2.20;1.85;;;;;;;21.86;63.82;65285.31;5032131;28;20186;-51
2023/08/09 08:01:56;;;;;;;10.35;2.90;;;;;;;21.91;64.80;65291.41;5032539;28;20221;-53
2023/08/09 08:04:21;;;;;;;6.80;2.42;;;;;;;22.11;65.49;65313.00;5030586;28;20198;-52
2023/08/09 08:06:48;;;;;;;4.68;2.00;;;;;;;22.29;62.01;65333.47;5031745;28;20702;-59
2023/08/09 08:09:16;;;;;;;13.27;3.20;;;;;;;22.40;64.66;65345.09;5032164;28;20687;-53
2023/08/09 08:11:43;;;;;;;2.92;2.10;;;;;;;22.49;61.64;65353.03;5032562;28;20304;-53
2023/08/09 08:14:10;;;;;;;2.20;2.00;;;;;;;22.43;61.06;65346.41;5032035;28;20238;-54
2023/08/09 08:16:37;;;;;;;6.80;3.00;;;;;;;22.53;62.75;65359.47;5031420;28;20224;-49
2023/08/09 08:19:02;;;;;;;2.83;2.20;;;;;;;22.76;59.74;65384.97;5031597;28;20280;-53
2023/08/09 08:21:28;;;;;;;3.88;2.08;;;;;;;22.71;61.18;65376.84;5031759;28;20206;-52
2023/08/09 08:23:54;;;;;;;3.95;2.90;;;;;;;22.69;60.74;65377.22;5032372;28;20220;-51
2023/08/09 08:26:20;;;;;;;3.47;2.55;;;;;;;22.90;60.36;65400.47;5031920;28;20217;-50
2023/08/09 08:28:46;;;;;;;3.28;2.30;;;;;;;23.20;57.82;65433.72;5031696;28;20297;-50
2023/08/09 08:31:12;;;;;;;4.68;2.53;;;;;;;23.14;57.87;65427.06;5031784;28;20218;-55
2023/08/09 08:33:45;;;;;;;2.22;2.00;;;;;;;23.16;58.78;65428.72;5033216;28;20194;-50
2023/08/09 08:36:11;;;;;;;9.18;6.20;;;;;;;23.35;60.38;65447.22;5033075;28;20659;-53
2023/08/09 08:38:37;;;;;;;16.45;8.77;;;;;;;23.43;60.15;65458.66;5030162;28;20648;-54
2023/08/09 08:41:03;;;;;;;11.23;8.93;;;;;;;23.65;59.43;65480.47;5031748;28;20634;-51
2023/08/09 08:43:29;;;;;;;4.47;2.20;;;;;;;23.88;57.72;65505.38;5032361;28;20551;-51
2023/08/09 08:45:55;;;;;;;7.93;6.38;;;;;;;24.08;60.70;65530.16;5031189;28;20624;-54
2023/08/09 08:48:21;;;;;;;3.42;2.00;;;;;;;24.20;54.76;65542.91;5032855;28;20248;-53
2023/08/09 08:50:48;;;;;;;2.58;2.08;;;;;;;24.04;55.88;65525.72;5032490;28;20225;-52
2023/08/09 08:53:14;;;;;;;3.53;3.22;;;;;;;23.77;58.83;65495.78;5031566;28;20285;-53
2023/08/09 08:55:40;;;;;;;2.55;2.05;;;;;;;23.87;55.96;65507.41;5031108;28;20245;-52
2023/08/09 08:58:05;;;;;;;2.17;1.98;;;;;;;23.62;56.01;65479.16;5032315;28;20633;-54
2023/08/09 09:00:31;;;;;;;3.38;1.88;;;;;;;23.52;56.49;65466.03;5031155;28;20202;-54
2023/08/09 09:02:58;;;;;;;2.70;2.50;;;;;;;23.06;56.79;65417.63;5030637;28;20214;-51
2023/08/09 09:05:25;;;;;;;2.75;2.45;;;;;;;23.23;58.27;65436.47;5032287;28;20200;-51
2023/08/09 09:07:52;;;;;;;4.80;3.58;;;;;;;23.51;57.61;65464.41;5032436;28;20232;-52
2023/08/09 09:10:19;;;;;;;3.80;1.60;;;;;;;23.75;55.99;65491.53;5032609;28;20711;-51
2023/08/09 09:12:45;;;;;;;3.20;2.47;;;;;;;24.07;59.62;65529.63;5032204;28;20217;-53
2023/08/09 09:15:12;;;;;;;2.10;2.00;;;;;;;24.43;54.62;65568.97;5032425;28;20198;-50
2023/08/09 09:17:42;;;;;;;2.50;1.60;;;;;;;24.59;51.35;65583.56;5030817;28;20764;-55
2023/08/09 09:20:24;;;;;;;3.50;3.10;;;;;;;24.72;53.88;65598.56;5032587;28;20424;-54
2023/08/09 09:22:53;;;;;;;4.97;2.83;;;;;;;25.02;51.29;65635.91;5032189;28;20218;-51
2023/08/09 09:25:22;;;;;;;4.40;3.70;;;;;;;25.35;51.07;65667.38;5030854;28;20210;-50
2023/08/09 09:27:54;;;;;;;3.60;2.63;;;;;;;25.61;49.31;65698.84;5031391;28;20715;-52
2023/08/09 09:30:24;;;;;;;2.45;1.80;;;;;;;25.67;47.28;65705.50;5029440;28;20265;-54
2023/08/09 09:33:00;;;;;;;2.17;1.80;;;;;;;25.44;49.32;65675.34;5031090;28;20213;-54
2023/08/09 09:35:31;;;;;;;2.70;1.80;;;;;;;25.35;49.48;65667.38;5030798;28;20205;-54
2023/08/09 09:37:59;;;;;;;1.90;1.80;;;;;;;25.82;49.01;65721.59;5031876;28;20221;-50
2023/08/09 09:40:36;;;;;;;2.08;1.80;;;;;;;26.13;47.80;65754.03;5031315;28;20301;-51
2023/08/09 09:43:07;;;;;;;2.20;1.77;;;;;;;26.29;47.50;65771.78;5030563;28;20210;-51
2023/08/09 09:45:33;;;;;;;1.77;1.67;;;;;;;26.55;46.19;65800.66;5029985;28;20225;-51
2023/08/09 09:48:00;;;;;;;5.05;4.43;;;;;;;26.47;46.23;65788.63;5031576;28;20344;-55
2023/08/09 09:50:29;;;;;;;4.10;2.75;;;;;;;26.43;47.34;65789.38;5031055;28;20294;-55
2023/08/09 09:52:55;;;;;;;2.47;2.17;;;;;;;27.15;46.11;65866.28;5032683;28;20691;-51
2023/08/09 09:55:26;;;;;;;2.50;2.00;;;;;;;27.52;44.37;65904.25;5031211;28;20644;-51
2023/08/09 09:57:57;;;;;;;2.47;1.33;;;;;;;27.55;42.82;65913.34;5031259;28;20267;-56
2023/08/09 10:00:27;;;;;;;1.65;1.55;;;;;;;27.61;41.56;65917.44;5030773;28;20206;-54
2023/08/09 10:02:53;;;;;;;1.77;1.67;;;;;;;27.63;42.14;65919.66;5029052;28;20308;-50
2023/08/09 10:05:23;;;;;;;1.80;1.70;;;;;;;27.41;41.12;65895.72;5030624;28;20675;-58
2023/08/09 10:07:57;;;;;;;2.97;2.70;;;;;;;27.29;41.32;65879.78;5030275;28;20221;-51
2023/08/09 10:10:24;;;;;;;2.38;1.77;;;;;;;27.61;41.92;65917.44;5030631;28;20205;-50
2023/08/09 10:12:54;;;;;;;2.03;1.60;;;;;;;28.03;42.06;65964.16;5030236;28;20225;-50
2023/08/09 10:15:28;;;;;;;3.35;2.08;;;;;;;28.07;40.77;65968.06;5030799;28;20194;-53
2023/08/09 10:18:02;;;;;;;2.28;1.52;;;;;;;28.62;40.01;66026.13;5029487;28;20221;-54
2023/08/09 10:20:29;;;;;;;4.13;1.70;;;;;;;28.94;39.10;66064.91;5026379;28;20252;-52
2023/08/09 10:22:58;;;;;;;1.88;1.77;;;;;;;27.88;39.99;65947.44;5011748;28;20235;-50
2023/08/09 10:25:44;;;;;;;8.93;5.85;;;;;;;27.53;39.90;65908.53;5011127;28;20194;-52
2023/08/09 10:28:11;;;;;;;1.92;1.65;;;;;;;28.49;39.79;66012.19;5010944;28;20229;-52
2023/08/09 10:30:49;;;;;;;2.13;1.27;;;;;;;28.82;37.39;66050.97;5011944;28;20695;-51
2023/08/09 10:33:18;;;;;;;1.95;1.80;;;;;;;28.95;37.96;66065.44;5010064;28;20651;-50
2023/08/09 10:35:52;;;;;;;2.22;1.33;;;;;;;29.11;37.76;66083.25;5010604;28;20282;-55
2023/08/09 10:38:19;;;;;;;1.90;1.30;;;;;;;29.03;38.08;66071.75;5012274;28;20207;-52
2023/08/09 10:40:51;;;;;;;3.40;3.10;;;;;;;27.81;38.23;65942.25;5013823;28;20265;-51
2023/08/09 10:43:20;;;;;;;7.28;3.50;;;;;;;27.45;39.18;65902.22;5013888;28;20653;-51
2023/08/09 10:45:48;;;;;;;10.38;5.93;;;;;;;27.97;39.64;65956.94;5013593;28;20309;-52
2023/08/09 10:48:23;;;;;;;1.33;1.25;;;;;;;28.29;37.84;65995.13;5013786;28;20211;-54
2023/08/09 10:51:07;;;;;;;1.52;1.20;;;;;;;27.80;38.97;65938.00;5014570;28;20233;-52
2023/08/09 10:53:51;;;;;;;2.30;1.60;;;;;;;28.43;38.74;66008.09;5013872;28;20273;-55
2023/08/09 10:56:46;;;;;;;2.60;1.48;;;;;;;28.90;37.56;66063.03;5013287;28;20577;-51
2023/08/09 10:59:20;;;;;;;1.20;1.08;;;;;;;29.53;35.98;66130.06;5012313;28;20206;-51
2023/08/09 11:01:45;;;;;;;1.42;1.10;;;;;;;29.72;35.50;66150.69;5013426;28;20221;-50
2023/08/09 11:04:26;;;;;;;1.30;1.25;;;;;;;29.15;34.67;66087.19;5013770;28;20593;-53
2023/08/09 11:06:52;;;;;;;1.40;1.30;;;;;;;29.47;36.25;66125.97;5012030;28;20214;-58
2023/08/09 11:09:23;;;;;;;5.57;1.42;;;;;;;29.76;35.41;66152.53;5012711;28;20210;-55
2023/08/09 11:11:51;;;;;;;1.75;1.65;;;;;;;30.07;34.72;66189.69;5013069;28;20222;-55
2023/08/09 11:14:19;;;;;;;2.85;1.30;;;;;;;30.35;35.43;66220.91;5013152;28;20225;-55
2023/08/09 11:16:46;;;;;;;3.33;1.77;;;;;;;30.71;33.96;66260.47;4995293;28;20210;-57
2023/08/09 11:19:14;;;;;;;1.90;1.55;;;;;;;30.72;33.83;66263.66;5011811;28;20203;-51
2023/08/09 11:21:43;;;;;;;1.30;1.20;;;;;;;30.52;33.75;66237.25;5013338;28;20211;-52
2023/08/09 11:24:11;;;;;;;1.52;1.40;;;;;;;29.98;33.11;66179.09;5013431;28;20733;-50
2023/08/09 11:26:49;;;;;;;1.23;1.10;;;;;;;30.17;32.88;66198.22;5044271;23;20276;-52
2023/08/09 11:29:20;;;;;;;1.65;1.13;;;;;;;30.30;33.73;66212.19;5093116;28;20673;-53
2023/08/09 11:31:48;;;;;;;2.17;2.05;;;;;;;30.20;32.40;66201.56;5070927;28;20318;-51
2023/08/09 11:34:15;;;;;;;1.50;1.38;;;;;;;30.51;32.88;66238.75;5072629;28;20200;-51